Time;durP1;ratioP1;P1;durP2;ratioP2;P2;SDS_P1;SDS_P2;PMS_P1;PMS_P2;Temp;Humidity;BMP_temperature;BMP_pressure;BME280_temperature;BME280_humidity;BME280_pressure;Samples;Min_cycle;Max_cycle;Signal;HPM_P1;HPM_P2
2021/07/26 00:00:12;;;;;;;10.87;9.77;;;17.20;99.90;;;;;;4360402;33;20187;-64
2021/07/26 00:02:39;;;;;;;10.70;9.60;;;17.20;99.90;;;;;;4360433;32;20145;-63
2021/07/26 00:05:07;;;;;;;10.43;9.33;;;17.20;99.90;;;;;;4360475;32;20174;-63
2021/07/26 00:07:34;;;;;;;11.40;10.30;;;17.20;99.90;;;;;;4361911;33;20148;-63
2021/07/26 00:10:03;;;;;;;10.90;9.80;;;17.20;99.90;;;;;;4361240;33;20216;-64
2021/07/26 00:12:30;;;;;;;10.10;9.10;;;17.20;99.90;;;;;;4360183;33;20160;-63
2021/07/26 00:14:57;;;;;;;14.50;9.83;;;17.10;99.90;;;;;;4361026;32;20167;-63
2021/07/26 00:17:25;;;;;;;11.47;8.77;;;17.10;99.90;;;;;;4360625;33;20536;-64
2021/07/26 00:19:52;;;;;;;13.27;10.17;;;17.10;99.90;;;;;;4360359;32;20168;-64
2021/07/26 00:22:19;;;;;;;10.87;9.27;;;17.10;99.90;;;;;;4360954;33;20485;-63
2021/07/26 00:24:46;;;;;;;12.03;10.30;;;17.10;99.90;;;;;;4360428;33;20475;-64
2021/07/26 00:27:12;;;;;;;11.17;10.07;;;17.00;99.90;;;;;;4360333;33;20184;-64
2021/07/26 00:29:39;;;;;;;11.13;9.30;;;17.00;99.90;;;;;;4360813;33;20160;-62
2021/07/26 00:32:07;;;;;;;13.03;10.27;;;17.00;99.90;;;;;;4361474;33;20219;-63
2021/07/26 00:34:35;;;;;;;11.20;9.33;;;17.00;99.90;;;;;;4360123;33;20180;-63
2021/07/26 00:37:03;;;;;;;14.60;10.03;;;17.00;99.90;;;;;;4360235;32;20160;-63
2021/07/26 00:39:34;;;;;;;11.30;9.47;;;17.00;99.90;;;;;;4360281;33;20141;-64
2021/07/26 00:42:02;;;;;;;16.70;9.70;;;17.00;99.90;;;;;;4361332;33;20171;-62
2021/07/26 00:44:32;;;;;;;10.63;9.53;;;17.00;99.90;;;;;;4360821;32;20462;-62
2021/07/26 00:46:59;;;;;;;10.60;9.50;;;17.00;99.90;;;;;;4361651;33;20175;-63
2021/07/26 00:49:27;;;;;;;12.27;9.37;;;16.90;99.90;;;;;;4361728;33;20191;-62
2021/07/26 00:51:57;;;;;;;10.23;8.93;;;16.90;99.90;;;;;;4360226;33;20218;-63
2021/07/26 00:54:27;;;;;;;12.63;9.97;;;16.90;99.90;;;;;;4360507;32;20629;-63
2021/07/26 00:56:56;;;;;;;10.57;9.37;;;16.80;99.90;;;;;;4362434;32;20218;-63
2021/07/26 00:59:23;;;;;;;11.67;9.97;;;16.80;99.90;;;;;;4362986;32;20496;-63
2021/07/26 01:01:50;;;;;;;11.53;10.30;;;16.80;99.90;;;;;;4363686;32;20165;-63
2021/07/26 01:04:17;;;;;;;11.83;10.63;;;16.80;99.90;;;;;;4364049;32;20488;-63
2021/07/26 01:06:44;;;;;;;12.37;9.90;;;16.80;99.90;;;;;;4362999;32;20195;-64
2021/07/26 01:09:14;;;;;;;12.23;10.50;;;16.80;99.90;;;;;;4362944;32;20499;-63
2021/07/26 01:11:42;;;;;;;11.33;9.80;;;16.80;99.90;;;;;;4362639;33;20182;-63
2021/07/26 01:14:09;;;;;;;11.60;10.40;;;16.80;99.90;;;;;;4362486;33;20220;-64
2021/07/26 01:16:36;;;;;;;13.17;10.63;;;16.80;99.90;;;;;;4362471;32;20156;-63
2021/07/26 01:19:03;;;;;;;12.60;11.30;;;16.80;99.90;;;;;;4363385;32;20145;-63
2021/07/26 01:21:32;;;;;;;10.50;9.40;;;16.80;99.90;;;;;;4363001;32;20168;-63
2021/07/26 01:24:00;;;;;;;11.57;10.37;;;16.70;99.90;;;;;;4363062;32;20168;-63
2021/07/26 01:26:29;;;;;;;12.97;10.87;;;16.70;99.90;;;;;;4362751;32;20163;-62
2021/07/26 01:28:58;;;;;;;14.77;11.07;;;16.70;99.90;;;;;;4362289;33;20157;-63
2021/07/26 01:31:25;;;;;;;12.63;10.30;;;16.70;99.90;;;;;;4362373;33;20572;-63
2021/07/26 01:33:53;;;;;;;14.93;11.73;;;16.70;99.90;;;;;;4362308;33;20196;-63
2021/07/26 01:36:21;;;;;;;14.03;11.53;;;16.70;99.90;;;;;;4362937;32;20492;-63
2021/07/26 01:38:52;;;;;;;15.03;11.07;;;16.60;99.90;;;;;;4362310;32;20164;-63
2021/07/26 01:41:20;;;;;;;12.60;10.70;;;16.60;99.90;;;;;;4362326;33;20542;-64
2021/07/26 01:44:06;;;;;;;14.03;11.73;;;16.60;99.90;;;;;;4362481;32;20153;-62
2021/07/26 01:47:04;;;;;;;13.90;11.70;;;16.60;99.90;;;;;;4361845;33;20216;-62
2021/07/26 01:49:43;;;;;;;12.90;11.37;;;16.50;99.90;;;;;;4362186;33;20145;-63
2021/07/26 01:52:10;;;;;;;14.40;10.87;;;16.60;99.90;;;;;;4361980;32;20632;-63
2021/07/26 01:54:39;;;;;;;13.90;12.07;;;16.50;99.90;;;;;;4362642;32;20159;-63
2021/07/26 01:57:06;;;;;;;13.90;12.37;;;16.50;99.90;;;;;;4361964;33;20179;-62
2021/07/26 01:59:33;;;;;;;13.83;12.40;;;16.50;99.90;;;;;;4362753;32;20228;-62
2021/07/26 02:02:00;;;;;;;13.80;11.63;;;16.50;99.90;;;;;;4363644;32;20591;-62
2021/07/26 02:04:27;;;;;;;15.00;13.43;;;16.40;99.90;;;;;;4361999;33;20187;-63
2021/07/26 02:06:53;;;;;;;16.80;13.07;;;16.40;99.90;;;;;;4360944;32;20203;-62
2021/07/26 02:09:20;;;;;;;16.63;14.80;;;16.40;99.90;;;;;;4361840;33;20148;-62
2021/07/26 02:11:48;;;;;;;17.57;14.87;;;16.40;99.90;;;;;;4361775;33;20611;-63
2021/07/26 02:14:15;;;;;;;15.90;13.87;;;16.40;99.90;;;;;;4361630;33;20182;-63
2021/07/26 02:16:43;;;;;;;19.33;13.87;;;16.40;99.90;;;;;;4361923;32;20203;-62
2021/07/26 02:19:10;;;;;;;16.43;13.77;;;16.40;99.90;;;;;;4361633;32;20503;-63
2021/07/26 02:21:36;;;;;;;17.03;13.03;;;16.30;99.90;;;;;;4362284;32;20145;-63
2021/07/26 02:24:07;;;;;;;16.07;14.30;;;16.30;99.90;;;;;;4361584;32;20209;-63
2021/07/26 02:26:34;;;;;;;15.30;13.67;;;16.30;99.90;;;;;;4361376;32;20247;-62
2021/07/26 02:29:02;;;;;;;20.80;14.63;;;16.30;99.90;;;;;;4361460;33;20209;-61
2021/07/26 02:31:29;;;;;;;19.70;14.23;;;16.30;99.90;;;;;;4361604;32;20180;-64
2021/07/26 02:33:56;;;;;;;21.27;14.37;;;16.20;99.90;;;;;;4361753;32;20220;-63
2021/07/26 02:36:23;;;;;;;16.57;14.80;;;16.30;99.90;;;;;;4361314;33;20655;-63
2021/07/26 02:38:50;;;;;;;16.93;15.13;;;16.30;99.90;;;;;;4362559;32;20219;-62
2021/07/26 02:41:17;;;;;;;17.73;15.13;;;16.20;99.90;;;;;;4361333;33;20148;-62
2021/07/26 02:43:45;;;;;;;17.77;15.43;;;16.20;99.90;;;;;;4361289;33;20161;-62
2021/07/26 02:46:13;;;;;;;20.37;15.67;;;16.20;99.90;;;;;;4361612;32;20152;-63
2021/07/26 02:48:40;;;;;;;18.17;15.87;;;16.20;99.90;;;;;;4362093;32;20446;-62
2021/07/26 02:51:07;;;;;;;20.50;15.70;;;16.20;99.90;;;;;;4361330;33;20169;-62
2021/07/26 02:53:34;;;;;;;18.53;16.00;;;16.20;99.90;;;;;;4361706;32;20145;-63
2021/07/26 02:56:01;;;;;;;17.27;14.47;;;16.20;99.90;;;;;;4362864;32;20168;-63
2021/07/26 02:58:30;;;;;;;19.03;16.50;;;16.20;99.90;;;;;;4361184;33;20196;-62
2021/07/26 03:01:00;;;;;;;17.97;14.47;;;16.20;99.90;;;;;;4360549;33;20203;-62
2021/07/26 03:03:28;;;;;;;21.97;15.83;;;16.20;99.90;;;;;;4361176;33;20216;-62
2021/07/26 03:05:55;;;;;;;16.30;14.60;;;16.20;99.90;;;;;;4361047;32;20179;-62
2021/07/26 03:08:21;;;;;;;20.43;15.03;;;16.20;99.90;;;;;;4360897;33;20153;-63
2021/07/26 03:10:49;;;;;;;19.07;14.43;;;16.20;99.90;;;;;;4361244;32;20153;-63
2021/07/26 03:13:17;;;;;;;20.50;15.23;;;16.20;99.90;;;;;;4361366;32;20511;-63
2021/07/26 03:15:44;;;;;;;18.00;14.93;;;16.10;99.90;;;;;;4362553;32;20204;-63
2021/07/26 03:18:10;;;;;;;16.60;14.90;;;16.10;99.90;;;;;;4360162;32;20528;-63
2021/07/26 03:20:39;;;;;;;16.07;13.97;;;16.10;99.90;;;;;;4360944;33;20203;-64
2021/07/26 03:23:08;;;;;;;17.03;14.57;;;16.10;99.90;;;;;;4361508;32;20495;-63
2021/07/26 03:25:40;;;;;;;19.43;15.40;;;16.10;99.90;;;;;;4360961;32;20140;-63
2021/07/26 03:28:07;;;;;;;19.97;16.17;;;16.20;99.90;;;;;;4360811;32;20153;-64
2021/07/26 03:30:35;;;;;;;16.17;12.97;;;16.20;99.90;;;;;;4360620;33;20157;-63
2021/07/26 03:33:02;;;;;;;17.33;15.07;;;16.20;99.90;;;;;;4360824;33;20165;-64
2021/07/26 03:35:29;;;;;;;22.13;16.10;;;16.10;99.90;;;;;;4360629;33;20168;-63
2021/07/26 03:37:58;;;;;;;19.00;14.37;;;16.20;99.90;;;;;;4360660;33;20180;-63
2021/07/26 03:40:26;;;;;;;17.43;13.87;;;16.20;99.90;;;;;;4360849;32;20214;-62
2021/07/26 03:42:53;;;;;;;16.77;14.17;;;16.20;99.90;;;;;;4360621;33;20168;-63
2021/07/26 03:45:21;;;;;;;18.23;14.90;;;16.20;99.90;;;;;;4360263;33;20164;-62
2021/07/26 03:47:49;;;;;;;18.30;15.00;;;16.20;99.90;;;;;;4361516;32;20172;-63
2021/07/26 03:50:17;;;;;;;20.80;15.60;;;16.20;99.90;;;;;;4361823;32;20176;-63
2021/07/26 03:52:46;;;;;;;17.37;15.10;;;16.20;99.90;;;;;;4360827;32;20220;-63
2021/07/26 03:55:17;;;;;;;20.87;14.10;;;16.30;99.90;;;;;;4360266;33;20176;-63
2021/07/26 03:57:45;;;;;;;19.33;14.67;;;16.20;99.90;;;;;;4359702;32;20184;-63
2021/07/26 04:00:13;;;;;;;18.53;15.60;;;16.20;99.90;;;;;;4374495;32;20595;-63
2021/07/26 04:02:42;;;;;;;19.50;13.97;;;16.20;99.90;;;;;;4375459;32;20737;-63
2021/07/26 04:05:14;;;;;;;14.43;12.93;;;16.30;99.90;;;;;;4376009;32;20158;-62
2021/07/26 04:07:45;;;;;;;18.03;14.30;;;16.30;99.90;;;;;;4375351;32;20228;-63
2021/07/26 04:10:12;;;;;;;18.70;14.50;;;16.40;99.90;;;;;;4375417;32;20190;-63
2021/07/26 04:12:45;;;;;;;15.30;12.37;;;16.40;99.90;;;;;;4375281;32;20145;-63
2021/07/26 04:15:12;;;;;;;16.27;13.30;;;16.40;99.90;;;;;;4375687;32;20158;-63
2021/07/26 04:17:39;;;;;;;15.10;13.50;;;16.40;99.90;;;;;;4375278;32;20141;-63
2021/07/26 04:20:10;;;;;;;18.03;13.77;;;16.40;99.90;;;;;;4375312;32;20255;-63
2021/07/26 04:22:37;;;;;;;15.73;13.80;;;16.50;99.90;;;;;;4375061;32;20152;-63
2021/07/26 04:25:04;;;;;;;15.73;14.03;;;16.50;99.90;;;;;;4375075;32;20156;-63
2021/07/26 04:27:35;;;;;;;16.60;12.80;;;16.60;99.90;;;;;;4375270;32;20212;-63
2021/07/26 04:30:05;;;;;;;16.50;12.97;;;16.60;99.90;;;;;;4376476;32;20144;-62
2021/07/26 04:32:39;;;;;;;30.40;13.67;;;16.60;99.90;;;;;;4378576;32;20148;-62
2021/07/26 04:35:08;;;;;;;15.13;13.63;;;16.70;99.90;;;;;;4375479;32;20139;-62
2021/07/26 04:37:34;;;;;;;20.10;14.17;;;16.70;99.90;;;;;;4371024;32;20191;-62
2021/07/26 04:40:01;;;;;;;16.17;13.57;;;16.90;99.90;;;;;;4365734;32;20182;-62
2021/07/26 04:42:28;;;;;;;18.33;14.50;;;16.90;99.90;;;;;;4371237;32;20220;-62
2021/07/26 04:44:55;;;;;;;19.33;13.57;;;17.00;99.90;;;;;;4369206;32;20212;-62
2021/07/26 04:47:26;;;;;;;16.80;13.37;;;17.10;99.90;;;;;;4363644;32;20187;-63
2021/07/26 04:49:53;;;;;;;16.30;12.87;;;17.20;99.90;;;;;;4363452;32;20148;-62
2021/07/26 04:52:21;;;;;;;17.00;12.07;;;17.30;99.90;;;;;;4362103;32;22004;-63
2021/07/26 04:54:49;;;;;;;16.73;12.63;;;17.30;99.90;;;;;;4367306;32;20234;-62
2021/07/26 04:57:15;;;;;;;16.33;12.73;;;17.30;99.90;;;;;;4371780;32;20211;-63
2021/07/26 04:59:42;;;;;;;18.03;12.00;;;17.40;99.90;;;;;;4368009;32;20183;-63
2021/07/26 05:02:09;;;;;;;18.37;12.50;;;17.50;99.90;;;;;;4365328;32;20481;-62
2021/07/26 05:04:37;;;;;;;15.20;12.17;;;17.70;99.90;;;;;;4362692;33;20171;-61
2021/07/26 05:07:04;;;;;;;17.10;13.57;;;17.80;99.90;;;;;;4364369;32;20149;-62
2021/07/26 05:09:31;;;;;;;13.60;12.20;;;17.80;99.90;;;;;;4362465;33;20468;-62
2021/07/26 05:12:01;;;;;;;12.43;11.13;;;17.80;99.90;;;;;;4363283;32;20164;-62
2021/07/26 05:14:28;;;;;;;20.27;12.60;;;17.90;99.90;;;;;;4362725;32;20194;-61
2021/07/26 05:16:55;;;;;;;17.90;12.23;;;17.90;99.90;;;;;;4362298;32;20153;-62
2021/07/26 05:19:22;;;;;;;13.20;11.57;;;17.90;99.90;;;;;;4362708;33;20579;-61
2021/07/26 05:21:50;;;;;;;12.73;11.43;;;17.90;99.90;;;;;;4362371;33;20137;-61
2021/07/26 05:24:17;;;;;;;13.63;11.87;;;18.00;99.90;;;;;;4362541;33;20145;-62
2021/07/26 05:26:44;;;;;;;14.33;12.63;;;18.10;99.90;;;;;;4362582;33;20540;-64
2021/07/26 05:29:11;;;;;;;14.97;12.27;;;18.40;99.90;;;;;;4363426;32;20149;-62
2021/07/26 05:31:38;;;;;;;12.53;8.97;;;21.10;99.90;;;;;;4362384;32;20168;-63
2021/07/26 05:34:05;;;;;;;10.80;8.60;;;24.60;99.90;;;;;;4362892;32;20164;-65
2021/07/26 05:36:32;;;;;;;10.50;6.73;;;27.60;99.90;;;;;;4362329;33;20224;-63
2021/07/26 05:39:00;;;;;;;10.13;6.45;;;30.40;99.90;;;;;;4362151;33;20156;-63
2021/07/26 05:41:27;;;;;;;8.15;6.22;;;32.20;99.80;;;;;;4361939;32;20207;-63
2021/07/26 05:43:53;;;;;;;7.62;6.32;;;33.60;95.90;;;;;;4362680;32;20251;-63
2021/07/26 05:46:20;;;;;;;8.50;6.62;;;32.90;95.80;;;;;;4362995;32;20145;-61
2021/07/26 05:48:47;;;;;;;7.40;6.68;;;31.00;95.90;;;;;;4363756;32;20156;-63
2021/07/26 05:51:14;;;;;;;8.77;6.40;;;29.10;97.60;;;;;;4363422;32;20492;-62
2021/07/26 05:53:41;;;;;;;8.45;7.05;;;27.30;99.90;;;;;;4362385;32;20236;-63
2021/07/26 05:56:11;;;;;;;8.55;7.40;;;25.70;99.90;;;;;;4362599;32;20216;-63
2021/07/26 05:58:44;;;;;;;13.05;7.20;;;24.40;99.90;;;;;;4361816;33;20149;-63
2021/07/26 06:01:22;;;;;;;12.68;7.00;;;23.40;99.90;;;;;;4361474;33;20175;-63
2021/07/26 06:03:50;;;;;;;11.80;8.17;;;22.50;99.90;;;;;;4361968;33;20618;-63
2021/07/26 06:06:18;;;;;;;9.00;7.90;;;21.90;99.90;;;;;;4361933;33;20204;-64
2021/07/26 06:08:45;;;;;;;9.10;8.10;;;21.50;99.90;;;;;;4361969;33;20568;-63
2021/07/26 06:11:14;;;;;;;9.53;7.10;;;21.20;99.90;;;;;;4361795;32;20208;-64
2021/07/26 06:13:40;;;;;;;13.13;8.63;;;20.90;99.90;;;;;;4361815;33;20163;-61
2021/07/26 06:16:08;;;;;;;11.30;8.90;;;20.70;99.90;;;;;;4362041;32;20258;-62
2021/07/26 06:18:35;;;;;;;12.30;10.17;;;20.50;99.90;;;;;;4361707;33;20153;-61
2021/07/26 06:21:06;;;;;;;9.40;8.40;;;20.30;99.90;;;;;;4361691;33;20149;-61
2021/07/26 06:23:33;;;;;;;11.40;8.80;;;20.10;99.90;;;;;;4363375;32;20472;-62
2021/07/26 06:26:00;;;;;;;13.40;9.33;;;20.00;99.90;;;;;;4361452;33;20148;-62
2021/07/26 06:28:28;;;;;;;12.77;9.27;;;20.00;99.90;;;;;;4361411;33;20176;-62
2021/07/26 06:30:55;;;;;;;10.80;8.77;;;20.10;99.90;;;;;;4361629;33;20152;-62
2021/07/26 06:33:22;;;;;;;10.13;8.70;;;20.20;99.90;;;;;;4361373;33;20133;-62
2021/07/26 06:35:48;;;;;;;15.43;9.87;;;20.30;99.90;;;;;;4361393;33;20159;-62
2021/07/26 06:38:17;;;;;;;10.37;9.13;;;20.30;99.90;;;;;;4361630;32;20565;-62
2021/07/26 06:40:44;;;;;;;10.17;9.10;;;20.20;99.90;;;;;;4361373;32;20195;-63
2021/07/26 06:43:11;;;;;;;14.93;9.97;;;20.30;99.90;;;;;;4361247;33;20153;-62
2021/07/26 06:45:39;;;;;;;15.10;10.30;;;20.30;99.90;;;;;;4361462;33;20251;-63
2021/07/26 06:48:06;;;;;;;13.30;10.03;;;20.40;99.90;;;;;;4363009;32;20575;-61
2021/07/26 06:50:33;;;;;;;12.17;9.97;;;20.50;99.90;;;;;;4361232;33;20160;-61
2021/07/26 06:53:01;;;;;;;16.17;11.10;;;20.60;99.90;;;;;;4361185;32;20467;-61
2021/07/26 06:55:29;;;;;;;13.53;9.63;;;20.70;99.90;;;;;;4361219;32;20141;-62
2021/07/26 06:57:59;;;;;;;13.77;11.40;;;21.00;99.90;;;;;;4361034;32;20469;-61
2021/07/26 07:00:27;;;;;;;13.27;10.50;;;21.30;99.90;;;;;;4360824;33;20164;-61
2021/07/26 07:02:55;;;;;;;13.10;10.10;;;21.80;99.90;;;;;;4361122;33;20152;-63
2021/07/26 07:05:22;;;;;;;10.80;9.30;;;22.10;99.90;;;;;;4361868;32;20152;-64
2021/07/26 07:07:49;;;;;;;12.00;10.73;;;22.30;99.90;;;;;;4361101;32;20478;-64
2021/07/26 07:10:16;;;;;;;11.50;10.23;;;22.30;99.90;;;;;;4361083;33;20145;-63
2021/07/26 07:12:43;;;;;;;13.97;11.73;;;22.10;99.90;;;;;;4361516;32;20132;-64
2021/07/26 07:15:11;;;;;;;13.90;12.23;;;21.70;99.90;;;;;;4361771;32;20560;-61
2021/07/26 07:17:38;;;;;;;15.87;12.23;;;21.30;99.90;;;;;;4360823;33;20206;-61
2021/07/26 07:20:07;;;;;;;16.60;12.53;;;21.00;99.90;;;;;;4362404;32;20141;-62
2021/07/26 07:22:34;;;;;;;16.07;12.60;;;20.80;99.90;;;;;;4360778;33;20145;-61
2021/07/26 07:25:02;;;;;;;17.43;13.13;;;20.60;99.90;;;;;;4360799;33;20137;-61
2021/07/26 07:27:29;;;;;;;15.07;13.57;;;20.60;99.90;;;;;;4360760;33;20145;-61
2021/07/26 07:29:56;;;;;;;14.20;12.23;;;20.80;99.90;;;;;;4361189;32;20509;-62
2021/07/26 07:32:23;;;;;;;16.40;13.77;;;20.90;99.90;;;;;;4360716;33;20161;-61
2021/07/26 07:34:50;;;;;;;16.87;14.47;;;21.00;99.90;;;;;;4361678;32;20224;-62
2021/07/26 07:37:18;;;;;;;17.80;13.70;;;21.00;99.90;;;;;;4360837;33;20149;-61
2021/07/26 07:39:45;;;;;;;14.53;12.97;;;21.30;99.90;;;;;;4362362;32;20179;-62
2021/07/26 07:42:12;;;;;;;14.30;12.13;;;21.40;99.90;;;;;;4361408;32;20163;-62
2021/07/26 07:44:38;;;;;;;16.13;12.47;;;21.50;99.90;;;;;;4360753;33;20144;-62
2021/07/26 07:47:05;;;;;;;17.03;14.77;;;21.60;99.90;;;;;;4356313;32;20575;-61
2021/07/26 07:49:32;;;;;;;13.87;12.37;;;21.60;99.90;;;;;;4360652;32;20155;-63
2021/07/26 07:51:59;;;;;;;14.83;12.10;;;21.50;99.90;;;;;;4361190;32;20141;-62
2021/07/26 07:54:27;;;;;;;14.10;12.50;;;21.60;99.90;;;;;;4361379;32;20141;-64
2021/07/26 07:56:54;;;;;;;14.10;12.20;;;21.60;99.90;;;;;;4361249;32;20160;-61
2021/07/26 07:59:21;;;;;;;15.03;13.43;;;21.60;99.90;;;;;;4361814;33;20581;-63
2021/07/26 08:01:49;;;;;;;13.60;12.30;;;21.70;99.90;;;;;;4360603;33;20167;-62
2021/07/26 08:04:15;;;;;;;16.33;13.17;;;21.70;99.90;;;;;;4361102;32;20170;-63
2021/07/26 08:06:43;;;;;;;14.03;12.23;;;21.50;99.90;;;;;;4364346;32;20553;-62
2021/07/26 08:09:10;;;;;;;17.47;11.63;;;21.50;99.90;;;;;;4364515;32;20541;-63
2021/07/26 08:11:39;;;;;;;13.73;12.27;;;21.50;99.90;;;;;;4363533;33;20653;-64
2021/07/26 08:14:06;;;;;;;12.77;11.07;;;21.60;99.90;;;;;;4357494;33;20213;-65
2021/07/26 08:16:33;;;;;;;12.13;10.93;;;21.70;99.90;;;;;;4363347;33;20163;-62
2021/07/26 08:18:59;;;;;;;12.90;11.60;;;22.20;99.90;;;;;;4363247;33;20181;-64
2021/07/26 08:21:29;;;;;;;13.47;10.97;;;23.00;99.90;;;;;;4363502;33;20161;-64
2021/07/26 08:23:59;;;;;;;14.43;12.43;;;22.70;99.90;;;;;;4363003;33;20156;-62
2021/07/26 08:26:28;;;;;;;15.97;13.27;;;22.40;99.90;;;;;;4363437;33;20145;-62
2021/07/26 08:28:59;;;;;;;14.43;12.83;;;22.00;99.90;;;;;;4363287;32;20171;-62
2021/07/26 08:31:25;;;;;;;19.47;16.30;;;22.00;99.90;;;;;;4364256;32;20141;-62
2021/07/26 08:33:52;;;;;;;20.90;15.50;;;22.30;99.90;;;;;;4362922;33;20140;-62
2021/07/26 08:36:19;;;;;;;18.33;15.57;;;22.70;99.90;;;;;;4363684;32;20220;-62
2021/07/26 08:38:46;;;;;;;16.75;14.32;;;23.10;99.90;;;;;;4363579;32;20515;-62
2021/07/26 08:41:15;;;;;;;12.98;11.68;;;27.70;99.90;;;;;;4363141;33;20171;-63
2021/07/26 08:43:42;;;;;;;13.30;11.95;;;30.20;98.50;;;;;;4364598;32;20219;-63
2021/07/26 08:46:11;;;;;;;11.43;10.32;;;28.90;98.50;;;;;;4363011;33;20195;-63
2021/07/26 08:48:38;;;;;;;13.23;10.43;;;27.40;99.90;;;;;;4362864;33;20175;-63
2021/07/26 08:51:07;;;;;;;14.13;9.85;;;26.90;99.90;;;;;;4363050;33;20152;-65
2021/07/26 08:53:37;;;;;;;10.23;8.73;;;27.50;99.90;;;;;;4363255;32;20141;-64
2021/07/26 08:56:05;;;;;;;8.25;7.40;;;27.20;99.90;;;;;;4363936;32;20145;-65
2021/07/26 08:58:32;;;;;;;10.57;9.48;;;26.20;99.90;;;;;;4363188;32;20199;-64
2021/07/26 09:01:00;;;;;;;9.82;8.43;;;25.40;99.90;;;;;;4363547;32;20168;-64
2021/07/26 09:03:28;;;;;;;13.65;8.25;;;24.60;99.90;;;;;;4362931;32;20149;-64
2021/07/26 09:05:55;;;;;;;13.05;9.13;;;24.00;99.90;;;;;;4362871;33;20160;-63
2021/07/26 09:08:22;;;;;;;9.68;8.77;;;23.60;99.90;;;;;;4364214;32;20137;-63
2021/07/26 09:10:48;;;;;;;9.57;8.68;;;23.60;99.90;;;;;;4363055;32;20207;-64
2021/07/26 09:13:33;;;;;;;10.03;9.13;;;23.80;99.90;;;;;;4363577;32;20223;-64
2021/07/26 09:16:18;;;;;;;12.13;8.75;;;24.20;99.90;;;;;;4362067;32;20154;-63
2021/07/26 09:18:47;;;;;;;12.32;10.77;;;25.20;99.90;;;;;;4362834;32;20141;-64
2021/07/26 09:21:14;;;;;;;11.80;8.40;;;25.40;99.90;;;;;;4362853;32;20163;-64
2021/07/26 09:24:04;;;;;;;11.25;9.45;;;25.20;99.90;;;;;;4362398;33;20553;-64
2021/07/26 09:26:31;;;;;;;10.00;9.07;;;25.50;99.90;;;;;;4362567;33;20191;-64
2021/07/26 09:28:58;;;;;;;11.65;9.55;;;26.20;99.90;;;;;;4363655;32;20215;-64
2021/07/26 09:31:25;;;;;;;8.70;7.90;;;26.30;99.90;;;;;;4364222;32;20553;-64
2021/07/26 09:33:53;;;;;;;9.73;8.73;;;26.30;99.90;;;;;;4363733;32;20179;-64
2021/07/26 09:36:21;;;;;;;8.45;7.75;;;26.30;99.90;;;;;;4362303;33;20202;-64
2021/07/26 09:39:02;;;;;;;8.88;7.00;;;31.20;98.60;;;;;;4362370;32;20161;-66
2021/07/26 09:41:44;;;;;;;7.45;5.65;;;34.00;90.90;;;;;;4362381;33;20220;-66
2021/07/26 09:44:11;;;;;;;7.20;6.43;;;31.40;91.70;;;;;;4363509;32;20155;-64
2021/07/26 09:46:39;;;;;;;8.60;6.68;;;28.80;94.80;;;;;;4362518;32;20561;-64
2021/07/26 09:49:12;;;;;;;7.18;6.47;;;27.40;98.20;;;;;;4362178;33;20582;-65
2021/07/26 09:51:41;;;;;;;7.47;6.78;;;27.30;98.70;;;;;;4362769;32;20171;-64
2021/07/26 09:54:08;;;;;;;7.30;6.62;;;27.70;98.10;;;;;;4363544;32;20145;-64
2021/07/26 09:56:35;;;;;;;6.28;5.68;;;27.90;98.20;;;;;;4362217;32;20159;-64
2021/07/26 09:59:03;;;;;;;6.37;5.78;;;28.60;98.40;;;;;;4297740;32;2145033;-65
2021/07/26 10:01:30;;;;;;;8.13;5.80;;;28.70;96.80;;;;;;4362084;33;20220;-64
2021/07/26 10:03:57;;;;;;;5.85;5.30;;;28.70;97.40;;;;;;4361952;33;20153;-65
2021/07/26 10:06:27;;;;;;;9.15;5.80;;;28.90;96.60;;;;;;4362268;32;20165;-64
2021/07/26 10:08:55;;;;;;;8.80;6.45;;;29.00;96.70;;;;;;4361959;33;20157;-64
2021/07/26 10:11:22;;;;;;;6.47;5.75;;;28.50;96.30;;;;;;4362618;32;20152;-66
2021/07/26 10:13:49;;;;;;;7.37;6.68;;;27.80;97.60;;;;;;4361675;33;20214;-63
2021/07/26 10:16:19;;;;;;;6.97;5.97;;;27.60;97.20;;;;;;4361842;33;20183;-64
2021/07/26 10:18:46;;;;;;;8.75;7.37;;;27.60;97.80;;;;;;4361796;32;20169;-62
2021/07/26 10:21:16;;;;;;;9.70;8.13;;;27.60;98.30;;;;;;4361756;33;20136;-63
2021/07/26 10:23:54;;;;;;;7.57;6.78;;;27.30;98.00;;;;;;4362420;32;20145;-65
2021/07/26 10:26:25;;;;;;;6.40;5.60;;;26.70;98.90;;;;;;4362586;32;20471;-64
2021/07/26 10:28:54;;;;;;;7.32;6.62;;;26.10;99.90;;;;;;4360718;32;20205;-64
2021/07/26 10:31:37;;;;;;;7.87;7.10;;;25.70;99.90;;;;;;4362653;32;20162;-63
2021/07/26 10:34:06;;;;;;;8.23;7.35;;;25.60;99.90;;;;;;4360245;32;20259;-64
2021/07/26 10:36:57;;;;;;;8.90;7.28;;;25.90;99.90;;;;;;4361785;32;20187;-64
2021/07/26 10:39:28;;;;;;;7.45;6.75;;;25.90;99.90;;;;;;4361432;33;20202;-64
2021/07/26 10:42:04;;;;;;;7.60;6.75;;;25.50;99.90;;;;;;4361471;33;20153;-64
2021/07/26 10:44:44;;;;;;;8.02;6.85;;;25.30;99.90;;;;;;4361691;33;20140;-64
2021/07/26 10:47:21;;;;;;;9.73;7.47;;;25.40;99.90;;;;;;4362252;32;20159;-64
2021/07/26 10:50:16;;;;;;;6.80;6.20;;;25.30;99.90;;;;;;4363041;32;20629;-63
2021/07/26 10:52:47;;;;;;;8.52;7.72;;;25.40;99.90;;;;;;4362352;32;20500;-64
2021/07/26 10:55:57;;;;;;;5.85;5.35;;;25.30;99.90;;;;;;4361179;33;20210;-63
2021/07/26 10:59:05;;;;;;;7.70;5.97;;;25.60;99.90;;;;;;4361629;32;20457;-64
2021/07/26 11:01:59;;;;;;;10.02;6.37;;;25.40;99.90;;;;;;4300477;33;20151;-65
2021/07/26 11:04:41;;;;;;;6.97;6.37;;;25.10;99.90;;;;;;4271481;33;20583;-64
2021/07/26 11:07:29;;;;;;;6.20;4.97;;;25.00;99.90;;;;;;4273108;33;20653;-64
2021/07/26 11:09:56;;;;;;;6.43;4.93;;;25.10;99.90;;;;;;4272088;33;20197;-65
2021/07/26 11:12:57;;;;;;;4.70;3.83;;;25.10;99.90;;;;;;4271524;33;20185;-64
2021/07/26 11:15:26;;;;;;;6.00;3.67;;;25.20;99.90;;;;;;4257296;33;20238;-65
2021/07/26 11:18:17;;;;;;;5.62;4.43;;;25.10;99.90;;;;;;4257304;33;20599;-64
2021/07/26 11:21:04;;;;;;;6.03;4.25;;;25.50;99.90;;;;;;4257177;33;20607;-65
2021/07/26 11:23:39;;;;;;;6.53;3.67;;;25.80;99.90;;;;;;4257275;33;20177;-63
2021/07/26 11:26:13;;;;;;;3.83;3.35;;;25.60;99.90;;;;;;4257332;33;20174;-63
2021/07/26 11:28:40;;;;;;;5.07;3.17;;;25.60;99.90;;;;;;4257188;33;20691;-64
2021/07/26 11:31:09;;;;;;;6.97;3.42;;;25.50;99.90;;;;;;4257386;33;20151;-64
2021/07/26 11:33:35;;;;;;;4.87;3.90;;;25.50;99.90;;;;;;4257816;33;20163;-64
2021/07/26 11:36:03;;;;;;;6.12;3.67;;;25.80;99.90;;;;;;4287423;33;20550;-66
2021/07/26 11:38:30;;;;;;;4.12;2.33;;;25.80;99.90;;;;;;4299856;33;20181;-66
2021/07/26 11:40:57;;;;;;;4.05;2.40;;;26.00;99.90;;;;;;4302398;33;20641;-63
2021/07/26 11:43:34;;;;;;;2.35;2.15;;;26.00;99.60;;;;;;4314444;33;20142;-65
2021/07/26 11:46:01;;;;;;;2.47;2.10;;;25.60;99.90;;;;;;4314507;33;20157;-66
2021/07/26 11:48:30;;;;;;;3.03;1.55;;;25.20;99.90;;;;;;4314363;33;20145;-66
2021/07/26 11:50:57;;;;;;;4.05;1.70;;;24.80;99.90;;;;;;4315615;33;20145;-66
2021/07/26 11:53:27;;;;;;;1.80;1.70;;;24.50;99.90;;;;;;4354092;33;20148;-63
2021/07/26 11:55:54;;;;;;;3.78;2.20;;;24.10;99.90;;;;;;4360060;32;20148;-65
2021/07/26 11:58:27;;;;;;;2.78;1.90;;;23.80;99.90;;;;;;4356712;32;20238;-64
2021/07/26 12:00:55;;;;;;;2.47;1.83;;;23.70;99.90;;;;;;4356589;32;20199;-65
2021/07/26 12:03:26;;;;;;;2.40;2.20;;;23.70;99.90;;;;;;4358575;32;20265;-64
2021/07/26 12:06:03;;;;;;;2.53;2.20;;;23.70;99.90;;;;;;4359455;32;20238;-64
2021/07/26 12:08:30;;;;;;;2.03;1.83;;;23.40;99.90;;;;;;4360733;32;20212;-64
2021/07/26 12:11:20;;;;;;;2.15;1.95;;;23.30;99.90;;;;;;4363066;32;20217;-64
2021/07/26 12:13:57;;;;;;;2.00;1.90;;;23.20;99.90;;;;;;4361295;32;20185;-64
2021/07/26 12:16:24;;;;;;;2.43;2.23;;;23.10;99.90;;;;;;4345953;32;20156;-63
2021/07/26 12:19:20;;;;;;;3.03;2.00;;;22.90;99.90;;;;;;4360426;32;20282;-65
2021/07/26 12:21:48;;;;;;;2.40;1.80;;;23.00;99.90;;;;;;4362931;32;20233;-64
2021/07/26 12:24:15;;;;;;;3.23;2.47;;;23.20;99.90;;;;;;4364744;32;20144;-64
2021/07/26 12:27:00;;;;;;;2.93;2.13;;;23.30;99.90;;;;;;4367353;32;20601;-64
2021/07/26 12:29:29;;;;;;;4.30;3.33;;;23.30;99.90;;;;;;4360285;33;20161;-64
2021/07/26 12:32:03;;;;;;;3.85;3.10;;;23.30;99.90;;;;;;4360266;33;20464;-65
2021/07/26 12:34:30;;;;;;;5.55;3.78;;;23.50;99.90;;;;;;4361489;33;20141;-65
2021/07/26 12:37:07;;;;;;;4.32;3.92;;;23.60;99.90;;;;;;4361061;33;20591;-64
2021/07/26 12:39:38;;;;;;;4.12;3.78;;;23.80;99.90;;;;;;4360116;33;20164;-65
2021/07/26 12:42:20;;;;;;;5.62;5.05;;;24.00;99.90;;;;;;4360385;33;20133;-65
2021/07/26 12:44:47;;;;;;;6.72;5.40;;;24.00;99.90;;;;;;4360342;33;20129;-65
2021/07/26 12:47:25;;;;;;;6.15;5.55;;;24.00;99.90;;;;;;4360582;33;20168;-65